createdAt,value
2023-04-13T00:01:09.154Z,7.9
2023-04-13T00:03:35.236Z,7.9
2023-04-13T00:06:01.349Z,7.9
2023-04-13T00:08:27.426Z,7.9
2023-04-13T00:10:53.524Z,7.8
2023-04-13T00:13:19.623Z,7.8
2023-04-13T00:15:45.727Z,7.8
2023-04-13T00:18:11.809Z,7.7
2023-04-13T00:20:37.908Z,7.7
2023-04-13T00:23:04.003Z,7.7
2023-04-13T00:25:30.093Z,7.7
2023-04-13T00:27:56.185Z,7.6
2023-04-13T00:30:22.295Z,7.6
2023-04-13T00:32:48.381Z,7.6
2023-04-13T00:35:13.497Z,7.6
2023-04-13T00:37:39.586Z,7.6
2023-04-13T00:40:05.692Z,7.6
2023-04-13T00:42:31.781Z,7.5
2023-04-13T00:44:57.871Z,7.6
2023-04-13T00:47:23.973Z,7.6
2023-04-13T00:49:50.067Z,7.6
2023-04-13T00:52:16.162Z,7.7
2023-04-13T00:54:42.272Z,7.6
2023-04-13T00:57:08.346Z,7.6
2023-04-13T00:59:34.453Z,7.6
2023-04-13T01:02:00.542Z,7.5
2023-04-13T01:04:26.649Z,7.6
2023-04-13T01:06:51.759Z,7.6
2023-04-13T01:09:17.849Z,7.8
2023-04-13T01:11:43.955Z,7.8
2023-04-13T01:14:10.052Z,7.9
2023-04-13T01:16:36.143Z,7.9
2023-04-13T01:19:02.232Z,7.9
2023-04-13T01:21:28.318Z,7.9
2023-04-13T01:23:54.413Z,7.9
2023-04-13T01:26:20.529Z,7.8
2023-04-13T01:28:46.609Z,7.8
2023-04-13T01:31:12.714Z,7.7
2023-04-13T01:33:38.795Z,7.7
2023-04-13T01:36:04.898Z,7.7
2023-04-13T01:38:30.005Z,7.7
2023-04-13T01:40:56.125Z,7.7
2023-04-13T01:43:22.186Z,7.6
2023-04-13T01:45:48.293Z,7.6
2023-04-13T01:48:14.395Z,7.5
2023-04-13T01:50:40.479Z,7.4
2023-04-13T01:53:06.581Z,7.3
2023-04-13T01:55:32.672Z,7.2
2023-04-13T01:57:58.783Z,7.1
2023-04-13T02:00:24.876Z,7.1
2023-04-13T02:02:50.957Z,7
2023-04-13T02:05:17.081Z,6.9
2023-04-13T02:07:43.152Z,6.8
2023-04-13T02:10:08.256Z,6.7
2023-04-13T02:12:34.364Z,6.6
2023-04-13T02:15:00.460Z,6.5
2023-04-13T02:17:26.561Z,6.4
2023-04-13T02:19:52.643Z,6.4
2023-04-13T02:22:18.754Z,6.3
2023-04-13T02:24:44.860Z,6.1
2023-04-13T02:27:10.933Z,6.1
2023-04-13T02:29:37.035Z,6
2023-04-13T02:32:03.123Z,6.1
2023-04-13T02:34:29.230Z,6.5
2023-04-13T02:36:55.318Z,6.8
2023-04-13T02:39:21.419Z,7
2023-04-13T02:41:46.545Z,7.1
2023-04-13T02:44:12.618Z,7.1
2023-04-13T02:46:38.720Z,7.1
2023-04-13T02:49:04.824Z,7.1
2023-04-13T02:51:30.920Z,7
2023-04-13T02:53:57.006Z,6.9
2023-04-13T02:56:23.083Z,6.8
2023-04-13T02:58:49.191Z,6.7
2023-04-13T03:01:15.291Z,6.8
2023-04-13T03:03:41.393Z,6.8
2023-04-13T03:06:07.492Z,6.8
2023-04-13T03:08:33.575Z,6.7
2023-04-13T03:10:59.676Z,6.7
2023-04-13T03:13:24.789Z,6.7
2023-04-13T03:15:50.878Z,6.7
2023-04-13T03:18:17.019Z,6.7
2023-04-13T03:20:43.083Z,6.7
2023-04-13T03:23:09.175Z,6.7
2023-04-13T03:25:35.267Z,6.7
2023-04-13T03:28:01.360Z,6.7
2023-04-13T03:30:27.452Z,6.7
2023-04-13T03:32:53.553Z,6.7
2023-04-13T03:35:19.641Z,6.7
2023-04-13T03:37:45.742Z,6.7
2023-04-13T03:40:11.846Z,6.7
2023-04-13T03:42:37.944Z,6.7
2023-04-13T03:45:03.093Z,6.8
2023-04-13T03:47:29.145Z,6.9
2023-04-13T03:49:55.249Z,6.9
2023-04-13T03:52:21.333Z,6.9
2023-04-13T03:54:47.409Z,6.8
2023-04-13T03:57:13.522Z,6.8
2023-04-13T03:59:39.618Z,6.8
2023-04-13T04:02:05.724Z,6.9
2023-04-13T04:04:31.823Z,7
2023-04-13T04:06:57.932Z,7
2023-04-13T04:09:23.993Z,6.9
2023-04-13T04:11:50.104Z,6.9
2023-04-13T04:14:16.194Z,6.9
2023-04-13T04:16:41.299Z,6.8
2023-04-13T04:19:07.401Z,6.8
2023-04-13T04:21:33.532Z,6.9
2023-04-13T04:23:59.576Z,7.1
2023-04-13T04:26:25.691Z,7.2
2023-04-13T04:28:51.780Z,7.2
2023-04-13T04:31:17.874Z,7.4
2023-04-13T04:33:43.978Z,7.6
2023-04-13T04:36:10.076Z,7.6
2023-04-13T04:38:36.150Z,7.7
2023-04-13T04:41:02.280Z,7.8
2023-04-13T04:43:28.368Z,7.9
2023-04-13T04:45:54.444Z,7.9
2023-04-13T04:48:19.575Z,7.8
2023-04-13T04:50:45.670Z,7.8
2023-04-13T04:53:11.750Z,7.9
2023-04-13T04:55:37.862Z,7.9
2023-04-13T04:58:03.957Z,8
2023-04-13T05:00:30.080Z,8
2023-04-13T05:02:56.157Z,8
2023-04-13T05:05:22.244Z,8.1
2023-04-13T05:07:48.345Z,8.1
2023-04-13T05:10:14.429Z,8.1
2023-04-13T05:12:40.531Z,8.2
2023-04-13T05:15:06.621Z,8.2
2023-04-13T05:17:32.722Z,8.2
2023-04-13T05:19:57.845Z,8.3
2023-04-13T05:22:23.934Z,8.3
2023-04-13T05:24:50.035Z,8.3
2023-04-13T05:27:16.118Z,8.4
2023-04-13T05:29:42.222Z,8.4
2023-04-13T05:32:08.304Z,8.4
2023-04-13T05:34:34.391Z,8.4
2023-04-13T05:37:00.517Z,8.4
2023-04-13T05:39:26.608Z,8.5
2023-04-13T05:41:52.701Z,8.5
2023-04-13T05:44:18.786Z,8.5
2023-04-13T05:46:44.879Z,8.6
2023-04-13T05:49:10.975Z,8.6
2023-04-13T05:51:36.081Z,8.6
2023-04-13T05:54:02.245Z,8.6
2023-04-13T05:56:28.281Z,8.7
2023-04-13T05:58:54.386Z,8.7
2023-04-13T06:01:20.540Z,8.7
2023-04-13T06:03:46.564Z,8.7
2023-04-13T06:06:12.660Z,8.7
2023-04-13T06:08:38.779Z,8.7
2023-04-13T06:11:04.898Z,8.7
2023-04-13T06:13:30.986Z,8.7
2023-04-13T06:15:57.046Z,8.7
2023-04-13T06:18:23.181Z,8.7
2023-04-13T06:20:49.218Z,8.7
2023-04-13T06:23:14.364Z,8.8
2023-04-13T06:25:40.441Z,8.8
2023-04-13T06:28:06.531Z,8.8
2023-04-13T06:30:32.644Z,8.8
2023-04-13T06:32:58.739Z,8.8
2023-04-13T06:35:24.809Z,8.8
2023-04-13T06:37:50.923Z,8.8
2023-04-13T06:40:17.022Z,8.8
2023-04-13T06:42:43.118Z,8.8
2023-04-13T06:45:09.208Z,8.8
2023-04-13T06:47:35.323Z,8.8
2023-04-13T06:50:01.419Z,8.9
2023-04-13T06:52:27.501Z,9
2023-04-13T06:54:53.594Z,9
2023-04-13T06:57:19.685Z,9.1
2023-04-13T06:59:45.779Z,9.1
2023-04-13T07:02:10.895Z,9.1
2023-04-13T07:04:36.986Z,9.2
2023-04-13T07:07:03.115Z,9.2
2023-04-13T07:09:29.187Z,9.3
2023-04-13T07:11:55.276Z,9.4
2023-04-13T07:14:21.369Z,9.4
2023-04-13T07:16:47.476Z,9.4
2023-04-13T07:19:13.588Z,9.4
2023-04-13T07:21:39.676Z,9.4
2023-04-13T07:24:05.771Z,9.5
2023-04-13T07:26:31.878Z,9.5
2023-04-13T07:28:57.964Z,9.6
2023-04-13T07:31:24.061Z,9.6
2023-04-13T07:33:49.169Z,9.6
2023-04-13T07:36:15.250Z,9.6
2023-04-13T07:38:41.346Z,9.7
2023-04-13T07:41:07.469Z,9.6
2023-04-13T07:43:33.552Z,9.6
2023-04-13T07:45:59.649Z,9.6
2023-04-13T07:48:25.802Z,9.7
2023-04-13T07:50:51.831Z,9.7
2023-04-13T07:53:17.921Z,9.8
2023-04-13T07:55:44.023Z,9.7
2023-04-13T07:58:10.108Z,9.8
2023-04-13T08:00:36.214Z,9.8
2023-04-13T08:03:02.364Z,9.8
2023-04-13T08:05:27.511Z,9.8
2023-04-13T08:07:53.573Z,10.1
2023-04-13T08:10:19.680Z,10.3
2023-04-13T08:12:45.759Z,10.4
2023-04-13T08:15:11.839Z,10.5
2023-04-13T08:17:37.910Z,10.5
2023-04-13T08:20:04.022Z,10.4
2023-04-13T08:22:30.094Z,10.5
2023-04-13T08:24:56.210Z,10.4
2023-04-13T08:27:22.326Z,10.3
2023-04-13T08:29:48.428Z,10.4
2023-04-13T08:32:14.476Z,10.4
2023-04-13T08:34:40.573Z,10.3
2023-04-13T08:37:05.859Z,10.1
2023-04-13T08:39:31.920Z,10.2
2023-04-13T08:41:57.890Z,10.3
2023-04-13T08:44:23.954Z,10.5
2023-04-13T08:46:50.054Z,10.6
2023-04-13T08:49:16.145Z,10.6
2023-04-13T08:51:42.259Z,10.4
2023-04-13T08:56:34.452Z,10.4
2023-04-13T08:59:00.538Z,10.5
2023-04-13T09:01:26.627Z,10.7
2023-04-13T09:03:52.732Z,10.9
2023-04-13T09:06:18.859Z,11.1
2023-04-13T09:08:43.981Z,11.2
2023-04-13T09:11:10.090Z,11.3
2023-04-13T09:13:36.250Z,11.1
2023-04-13T09:16:02.298Z,10.9
2023-04-13T09:18:28.527Z,10.8
2023-04-13T09:20:54.541Z,10.5
2023-04-13T09:23:20.616Z,10.2
2023-04-13T09:25:46.648Z,10
2023-04-13T09:28:12.809Z,9.9
2023-04-13T09:30:38.940Z,10
2023-04-13T09:33:04.935Z,10
2023-04-13T09:35:31.000Z,10.3
2023-04-13T09:37:57.170Z,10.6
2023-04-13T09:40:22.207Z,10.7
2023-04-13T09:42:48.287Z,10.7
2023-04-13T09:45:14.396Z,10.8
2023-04-13T09:47:40.542Z,11.1
2023-04-13T09:50:06.591Z,11.3
2023-04-13T09:52:32.701Z,11.6
2023-04-13T09:54:58.758Z,11.8
2023-04-13T09:57:24.852Z,12.2
2023-04-13T09:59:50.948Z,12.2
2023-04-13T10:02:17.062Z,12.3
2023-04-13T10:04:43.149Z,12
2023-04-13T10:07:09.242Z,11.6
2023-04-13T10:09:35.320Z,11.5
2023-04-13T10:12:00.466Z,11.6
2023-04-13T10:14:26.548Z,11.8
2023-04-13T10:16:52.667Z,11.9
2023-04-13T10:19:18.783Z,11.8
2023-04-13T10:21:44.833Z,11.9
2023-04-13T10:24:10.925Z,11.9
2023-04-13T10:26:37.006Z,11.7
2023-04-13T10:29:03.191Z,11.6
2023-04-13T10:31:29.195Z,11.6
2023-04-13T10:33:55.296Z,11.5
2023-04-13T10:36:21.386Z,11.4
2023-04-13T10:38:47.495Z,11.4
2023-04-13T10:41:13.585Z,11.2
2023-04-13T10:43:38.700Z,11.3
2023-04-13T10:46:04.798Z,11.2
2023-04-13T10:48:30.898Z,11.2
2023-04-13T10:50:56.987Z,10.9
2023-04-13T10:53:23.066Z,10.9
2023-04-13T10:55:49.185Z,11
2023-04-13T10:58:15.274Z,11.1
2023-04-13T11:00:41.423Z,11
2023-04-13T11:03:07.505Z,11
2023-04-13T11:05:33.608Z,11.2
2023-04-13T11:07:59.695Z,11.2
2023-04-13T11:10:25.804Z,11.2
2023-04-13T11:12:51.923Z,11.1
2023-04-13T11:15:16.998Z,11.1
2023-04-13T11:17:43.113Z,11
2023-04-13T11:20:09.193Z,11.3
2023-04-13T11:22:35.281Z,11.2
2023-04-13T11:25:01.381Z,11.3
2023-04-13T11:27:27.453Z,11.3
2023-04-13T11:29:53.542Z,11.2
2023-04-13T11:32:19.649Z,11.4
2023-04-13T11:34:45.720Z,11.5
2023-04-13T11:37:11.919Z,11.5
2023-04-13T11:39:37.921Z,11.7
2023-04-13T11:42:04.024Z,11.8
2023-04-13T11:44:30.105Z,11.9
2023-04-13T11:46:55.224Z,11.6
2023-04-13T11:49:21.320Z,11.6
2023-04-13T11:51:47.410Z,11.7
2023-04-13T11:54:13.531Z,11.5
2023-04-13T11:56:39.613Z,11.4
2023-04-13T11:59:05.741Z,11.3
2023-04-13T12:01:31.814Z,11.1
2023-04-13T12:03:58.053Z,10.9
2023-04-13T12:06:24.173Z,10.8
2023-04-13T12:08:50.105Z,10.5
2023-04-13T12:11:16.163Z,10.4
2023-04-13T12:13:42.254Z,9.8
2023-04-13T12:16:08.357Z,9.4
2023-04-13T12:18:33.469Z,9.4
2023-04-13T12:20:59.578Z,9.4
2023-04-13T12:23:25.661Z,9.5
2023-04-13T12:25:51.769Z,9.5
2023-04-13T12:28:17.855Z,9.5
2023-04-13T12:30:43.937Z,9.4
2023-04-13T12:33:10.043Z,9.3
2023-04-13T12:35:36.138Z,9.2
2023-04-13T12:38:02.234Z,9
2023-04-13T12:40:28.335Z,8.9
2023-04-13T12:42:54.557Z,8.9
2023-04-13T12:45:20.536Z,9.1
2023-04-13T12:47:46.640Z,9.3
2023-04-13T12:50:11.714Z,9.3
2023-04-13T12:52:37.823Z,9.5
2023-04-13T12:55:03.908Z,9.6
2023-04-13T12:57:30.123Z,9.7
2023-04-13T12:59:56.219Z,10
2023-04-13T13:02:22.200Z,10.2
2023-04-13T13:04:48.304Z,10.4
2023-04-13T13:07:14.552Z,10.5
2023-04-13T13:09:40.632Z,10.7
2023-04-13T13:12:06.700Z,10.9
2023-04-13T13:14:32.886Z,10.9
2023-04-13T13:16:58.974Z,10.7
2023-04-13T13:19:25.071Z,10.7
2023-04-13T13:21:50.144Z,10.6
2023-04-13T13:24:16.128Z,10.8
2023-04-13T13:26:42.237Z,10.9
2023-04-13T13:29:07.266Z,11
2023-04-13T13:31:33.374Z,11.3
2023-04-13T13:33:59.532Z,11.3
2023-04-13T13:36:25.685Z,11.3
2023-04-13T13:38:51.771Z,11.5
2023-04-13T13:41:17.834Z,11.6
2023-04-13T13:43:43.985Z,11.6
2023-04-13T13:46:09.962Z,11.6
2023-04-13T13:48:36.043Z,11.5
2023-04-13T13:51:02.164Z,11.6
2023-04-13T13:53:28.276Z,11.7
2023-04-13T13:55:54.436Z,11.8
2023-04-13T13:58:20.419Z,12
2023-04-13T14:00:45.566Z,12
2023-04-13T14:03:11.742Z,12.1
2023-04-13T14:05:37.775Z,12.3
2023-04-13T14:08:03.855Z,12.2
2023-04-13T14:10:29.920Z,11.9
2023-04-13T14:12:56.010Z,12.1
2023-04-13T14:15:22.205Z,11.9
2023-04-13T14:17:48.243Z,12
2023-04-13T14:20:14.403Z,11.9
2023-04-13T14:22:40.390Z,11.8
2023-04-13T14:25:06.490Z,11.9
2023-04-13T14:27:32.614Z,11.8
2023-04-13T14:29:58.832Z,11.6
2023-04-13T14:32:23.802Z,11.4
2023-04-13T14:34:49.925Z,11.4
2023-04-13T14:37:15.992Z,11.5
2023-04-13T14:39:42.236Z,11.2
2023-04-13T14:42:08.333Z,11
2023-04-13T14:44:34.293Z,10.9
2023-04-13T14:47:00.357Z,10.7
2023-04-13T14:49:26.500Z,10.7
2023-04-13T14:51:52.555Z,10.8
2023-04-13T14:56:44.990Z,10.8
2023-04-13T14:59:10.851Z,10.6
2023-04-13T15:01:37.056Z,10.6
2023-04-13T15:04:03.161Z,10.5
2023-04-13T15:06:29.126Z,10.4
2023-04-13T15:08:55.373Z,10.4
2023-04-13T15:11:21.336Z,10.2
2023-04-13T15:13:47.470Z,10.2
2023-04-13T15:16:13.501Z,10.1
2023-04-13T15:18:39.613Z,10.1
2023-04-13T15:21:05.847Z,10.3
2023-04-13T15:23:31.996Z,10.3
2023-04-13T15:25:58.062Z,10.3
2023-04-13T15:28:23.168Z,10.3
2023-04-13T15:30:49.116Z,10.3
2023-04-13T15:33:15.243Z,10.2
2023-04-13T15:35:41.446Z,10.3
2023-04-13T15:38:07.544Z,10.4
2023-04-13T15:40:33.633Z,10.4
2023-04-13T15:42:59.580Z,10.5
2023-04-13T15:45:25.744Z,10.5
2023-04-13T15:47:51.775Z,10.5
2023-04-13T15:50:17.864Z,10.4
2023-04-13T15:52:43.957Z,10.3
2023-04-13T15:55:10.067Z,10.2
2023-04-13T15:57:36.153Z,10.1
2023-04-13T16:00:02.293Z,10
2023-04-13T16:02:28.334Z,10
2023-04-13T16:04:54.437Z,9.9
2023-04-13T16:07:20.513Z,10
2023-04-13T16:09:46.793Z,9.9
2023-04-13T16:12:12.762Z,9.9
2023-04-13T16:14:38.833Z,9.7
2023-04-13T16:17:05.035Z,9.6
2023-04-13T16:19:31.219Z,9.5
2023-04-13T16:21:57.289Z,9.4
2023-04-13T16:24:23.302Z,9.3
2023-04-13T16:26:49.373Z,9.2
2023-04-13T16:29:14.540Z,9.1
2023-04-13T16:31:40.504Z,9
2023-04-13T16:36:32.796Z,8.8
2023-04-13T16:38:58.946Z,8.8
2023-04-13T16:41:24.893Z,8.8
2023-04-13T16:43:50.975Z,8.7
2023-04-13T16:46:17.068Z,8.6
2023-04-13T16:48:43.145Z,8.5
2023-04-13T16:51:09.357Z,8.4
2023-04-13T16:53:35.380Z,8.4
2023-04-13T16:56:01.477Z,8.4
2023-04-13T16:58:27.600Z,8.4
2023-04-13T17:00:52.714Z,8.5
2023-04-13T17:03:18.833Z,8.4
2023-04-13T17:05:44.872Z,8.2
2023-04-13T17:08:11.125Z,8.3
2023-04-13T17:10:37.109Z,8.5
2023-04-13T17:13:03.156Z,8.5
2023-04-13T17:15:29.259Z,8.5
2023-04-13T17:17:55.378Z,8.5
2023-04-13T17:20:21.408Z,8.5
2023-04-13T17:22:47.653Z,8.4
2023-04-13T17:25:13.646Z,8.3
2023-04-13T17:27:39.908Z,8.3
2023-04-13T17:30:05.960Z,8.3
2023-04-13T17:32:30.996Z,8.4
2023-04-13T17:34:57.026Z,8.3
2023-04-13T17:37:23.115Z,8.4
2023-04-13T17:39:49.206Z,8.4
2023-04-13T17:42:15.297Z,8.4
2023-04-13T17:44:41.389Z,8.5
2023-04-13T17:47:07.498Z,8.5
2023-04-13T17:49:33.653Z,8.4
2023-04-13T17:51:59.759Z,8.4
2023-04-13T17:54:25.784Z,8.4
2023-04-13T17:56:51.920Z,8.3
2023-04-13T17:59:18.037Z,8.3
2023-04-13T18:01:44.101Z,8.2
2023-04-13T18:04:09.324Z,8.1
2023-04-13T18:06:35.278Z,8.1
2023-04-13T18:09:01.398Z,8.1
2023-04-13T18:11:27.472Z,8
2023-04-13T18:13:53.571Z,8
2023-04-13T18:16:19.742Z,8
2023-04-13T18:18:45.773Z,7.9
2023-04-13T18:21:11.970Z,7.9
2023-04-13T18:23:37.940Z,7.9
2023-04-13T18:26:04.115Z,8
2023-04-13T18:28:30.201Z,7.8
2023-04-13T18:30:56.260Z,7.7
2023-04-13T18:33:22.335Z,7.7
2023-04-13T18:35:48.483Z,7.7
2023-04-13T18:38:13.554Z,7.7
2023-04-13T18:40:39.629Z,7.6
2023-04-13T18:43:05.777Z,7.6
2023-04-13T18:45:31.832Z,7.5
2023-04-13T18:47:57.976Z,7.5
2023-04-13T18:50:24.022Z,7.4
2023-04-13T18:52:50.169Z,7.3
2023-04-13T18:55:16.258Z,7.2
2023-04-13T18:57:42.332Z,7.2
2023-04-13T19:00:08.409Z,7.1
2023-04-13T19:02:34.497Z,7
2023-04-13T19:05:00.617Z,6.9
2023-04-13T19:07:26.691Z,6.9
2023-04-13T19:09:51.808Z,6.9
2023-04-13T19:12:17.896Z,6.9
2023-04-13T19:14:44.008Z,7
2023-04-13T19:17:10.079Z,7
2023-04-13T19:19:36.187Z,7
2023-04-13T19:22:02.263Z,7
2023-04-13T19:24:28.364Z,7
2023-04-13T19:26:54.470Z,7
2023-04-13T19:29:20.685Z,7
2023-04-13T19:31:46.663Z,6.9
2023-04-13T19:34:12.763Z,6.9
2023-04-13T19:36:38.921Z,6.8
2023-04-13T19:39:04.944Z,6.8
2023-04-13T19:41:30.058Z,6.8
2023-04-13T19:43:56.157Z,6.8
2023-04-13T19:46:22.263Z,6.8
2023-04-13T19:48:48.360Z,6.8
2023-04-13T19:51:14.442Z,6.8
2023-04-13T19:53:40.530Z,6.9
2023-04-13T19:56:06.631Z,6.9
2023-04-13T19:58:32.773Z,6.9
2023-04-13T20:00:58.892Z,6.9
2023-04-13T20:03:24.918Z,7
2023-04-13T20:05:51.011Z,7
2023-04-13T20:08:17.170Z,7
2023-04-13T20:10:43.248Z,7
2023-04-13T20:13:09.408Z,7
2023-04-13T20:15:35.389Z,7
2023-04-13T20:18:01.507Z,7
2023-04-13T20:20:27.576Z,7
2023-04-13T20:22:53.713Z,7
2023-04-13T20:25:19.795Z,7.1
2023-04-13T20:27:45.898Z,7.1
2023-04-13T20:30:11.965Z,7.1
2023-04-13T20:32:38.079Z,7
2023-04-13T20:35:04.153Z,7.1
2023-04-13T20:37:30.265Z,7.1
2023-04-13T20:39:56.359Z,7.2
2023-04-13T20:42:21.515Z,7.1
2023-04-13T20:44:47.562Z,7
2023-04-13T20:47:13.655Z,7
2023-04-13T20:49:39.746Z,7
2023-04-13T20:52:05.854Z,7
2023-04-13T20:54:31.941Z,7
2023-04-13T20:56:58.034Z,7.1
2023-04-13T20:59:24.190Z,7.1
2023-04-13T21:01:50.233Z,7
2023-04-13T21:04:16.324Z,7
2023-04-13T21:06:42.434Z,7
2023-04-13T21:09:08.588Z,7
2023-04-13T21:11:34.607Z,7
2023-04-13T21:14:00.745Z,6.9
2023-04-13T21:16:25.883Z,6.9
2023-04-13T21:18:51.942Z,6.8
2023-04-13T21:21:18.037Z,6.8
2023-04-13T21:23:44.137Z,6.7
2023-04-13T21:26:10.255Z,6.6
2023-04-13T21:28:36.388Z,6.6
2023-04-13T21:31:02.425Z,6.5
2023-04-13T21:33:28.488Z,6.5
2023-04-13T21:35:54.594Z,6.4
2023-04-13T21:38:19.702Z,6.4
2023-04-13T21:40:45.792Z,6.3
2023-04-13T21:43:11.892Z,6.3
2023-04-13T21:45:37.982Z,6.3
2023-04-13T21:48:04.257Z,6.3
2023-04-13T21:50:30.213Z,6.3
2023-04-13T21:52:56.280Z,6.3
2023-04-13T21:55:22.355Z,6.3
2023-04-13T21:57:48.553Z,6.3
2023-04-13T22:00:14.590Z,6.3
2023-04-13T22:02:40.736Z,6.3
2023-04-13T22:05:06.857Z,6.2
2023-04-13T22:07:32.873Z,6.2
2023-04-13T22:09:57.979Z,6.2
2023-04-13T22:12:24.093Z,6.3
2023-04-13T22:14:50.167Z,6.3
2023-04-13T22:17:16.309Z,6.2
2023-04-13T22:19:42.356Z,6.1
2023-04-13T22:22:08.517Z,6
2023-04-13T22:24:34.537Z,6
2023-04-13T22:27:00.657Z,6
2023-04-13T22:29:26.791Z,6
2023-04-13T22:31:52.831Z,6
2023-04-13T22:34:18.915Z,5.9
2023-04-13T22:36:45.020Z,5.9
2023-04-13T22:39:11.268Z,6
2023-04-13T22:41:36.235Z,6
2023-04-13T22:44:02.310Z,5.9
2023-04-13T22:46:28.439Z,5.9
2023-04-13T22:48:54.575Z,5.8
2023-04-13T22:51:20.680Z,5.7
2023-04-13T22:53:46.689Z,5.7
2023-04-13T22:56:12.775Z,5.7
2023-04-13T22:58:38.887Z,5.6
2023-04-13T23:01:05.054Z,5.5
2023-04-13T23:03:31.075Z,5.5
2023-04-13T23:05:57.338Z,5.4
2023-04-13T23:08:23.270Z,5.4
2023-04-13T23:10:49.366Z,5.3
2023-04-13T23:13:14.491Z,5.3
2023-04-13T23:15:40.563Z,5.2
2023-04-13T23:18:06.722Z,5.2
2023-04-13T23:20:32.810Z,5.1
2023-04-13T23:22:58.879Z,5.1
2023-04-13T23:25:24.955Z,5.1
2023-04-13T23:27:51.044Z,5
2023-04-13T23:30:17.192Z,4.9
2023-04-13T23:32:43.324Z,5
2023-04-13T23:35:09.391Z,5
2023-04-13T23:37:35.434Z,5
2023-04-13T23:40:01.524Z,5
2023-04-13T23:42:27.636Z,5
2023-04-13T23:44:52.723Z,5
2023-04-13T23:47:18.834Z,5.1
2023-04-13T23:49:44.945Z,5.1
2023-04-13T23:52:11.030Z,5.1
2023-04-13T23:54:37.118Z,5.1
2023-04-13T23:59:29.302Z,5.2
